sensor_id;sensor_type;location;lat;lon;timestamp;temperature;humidity
63047;DHT22;62025;39.238;9.126;2022-11-23T00:01:12;15.00;64.70
63047;DHT22;62025;39.238;9.126;2022-11-23T00:03:44;15.20;63.90
63047;DHT22;62025;39.238;9.126;2022-11-23T00:06:11;15.20;63.90
63047;DHT22;62025;39.238;9.126;2022-11-23T00:08:38;15.10;64.10
63047;DHT22;62025;39.238;9.126;2022-11-23T00:11:04;15.10;64.50
63047;DHT22;62025;39.238;9.126;2022-11-23T00:13:30;15.00;64.50
63047;DHT22;62025;39.238;9.126;2022-11-23T00:15:56;15.20;64.00
63047;DHT22;62025;39.238;9.126;2022-11-23T00:18:22;15.10;64.00
63047;DHT22;62025;39.238;9.126;2022-11-23T00:20:48;15.10;63.80
63047;DHT22;62025;39.238;9.126;2022-11-23T00:23:14;15.20;63.90
63047;DHT22;62025;39.238;9.126;2022-11-23T00:25:43;15.10;64.80
63047;DHT22;62025;39.238;9.126;2022-11-23T00:28:10;15.10;64.40
63047;DHT22;62025;39.238;9.126;2022-11-23T00:30:37;15.20;64.30
63047;DHT22;62025;39.238;9.126;2022-11-23T00:33:03;15.30;64.10
63047;DHT22;62025;39.238;9.126;2022-11-23T00:35:30;15.30;64.10
63047;DHT22;62025;39.238;9.126;2022-11-23T00:37:56;15.30;64.20
63047;DHT22;62025;39.238;9.126;2022-11-23T00:40:22;15.30;64.70
63047;DHT22;62025;39.238;9.126;2022-11-23T00:42:48;15.20;65.30
63047;DHT22;62025;39.238;9.126;2022-11-23T00:45:14;15.20;65.60
63047;DHT22;62025;39.238;9.126;2022-11-23T00:47:40;15.20;65.80
63047;DHT22;62025;39.238;9.126;2022-11-23T00:50:06;15.20;65.90
63047;DHT22;62025;39.238;9.126;2022-11-23T00:52:32;15.30;65.60
63047;DHT22;62025;39.238;9.126;2022-11-23T00:54:58;15.20;66.20
63047;DHT22;62025;39.238;9.126;2022-11-23T00:57:24;15.10;66.80
63047;DHT22;62025;39.238;9.126;2022-11-23T00:59:50;15.20;66.20
63047;DHT22;62025;39.238;9.126;2022-11-23T01:02:16;15.30;65.70
63047;DHT22;62025;39.238;9.126;2022-11-23T01:04:42;15.30;65.60
63047;DHT22;62025;39.238;9.126;2022-11-23T01:07:08;15.20;65.80
63047;DHT22;62025;39.238;9.126;2022-11-23T01:09:33;15.20;65.90
63047;DHT22;62025;39.238;9.126;2022-11-23T01:11:59;15.20;66.00
63047;DHT22;62025;39.238;9.126;2022-11-23T01:14:25;15.30;66.00
63047;DHT22;62025;39.238;9.126;2022-11-23T01:16:51;15.30;66.10
63047;DHT22;62025;39.238;9.126;2022-11-23T01:19:19;15.30;66.60
63047;DHT22;62025;39.238;9.126;2022-11-23T01:21:48;15.30;66.70
63047;DHT22;62025;39.238;9.126;2022-11-23T01:24:20;15.30;67.10
63047;DHT22;62025;39.238;9.126;2022-11-23T01:26:53;15.30;67.70
63047;DHT22;62025;39.238;9.126;2022-11-23T01:29:21;15.30;68.10
63047;DHT22;62025;39.238;9.126;2022-11-23T01:31:47;15.30;68.20
63047;DHT22;62025;39.238;9.126;2022-11-23T01:34:14;15.30;67.70
63047;DHT22;62025;39.238;9.126;2022-11-23T01:36:41;15.30;67.80
63047;DHT22;62025;39.238;9.126;2022-11-23T01:39:09;15.30;68.50
63047;DHT22;62025;39.238;9.126;2022-11-23T01:41:38;15.30;68.60
63047;DHT22;62025;39.238;9.126;2022-11-23T01:46:54;15.40;68.50
63047;DHT22;62025;39.238;9.126;2022-11-23T01:49:38;15.40;69.40
63047;DHT22;62025;39.238;9.126;2022-11-23T01:52:25;15.40;69.40
63047;DHT22;62025;39.238;9.126;2022-11-23T01:54:57;15.40;69.70
63047;DHT22;62025;39.238;9.126;2022-11-23T01:57:31;15.40;69.00
63047;DHT22;62025;39.238;9.126;2022-11-23T02:00:01;15.40;69.50
63047;DHT22;62025;39.238;9.126;2022-11-23T02:02:42;15.30;69.60
63047;DHT22;62025;39.238;9.126;2022-11-23T02:05:10;15.40;69.70
63047;DHT22;62025;39.238;9.126;2022-11-23T02:07:43;15.30;70.00
63047;DHT22;62025;39.238;9.126;2022-11-23T02:10:09;15.30;69.90
63047;DHT22;62025;39.238;9.126;2022-11-23T02:12:35;15.40;69.70
63047;DHT22;62025;39.238;9.126;2022-11-23T02:15:01;15.40;69.50
63047;DHT22;62025;39.238;9.126;2022-11-23T02:17:27;15.40;69.50
63047;DHT22;62025;39.238;9.126;2022-11-23T02:20:01;15.40;69.60
63047;DHT22;62025;39.238;9.126;2022-11-23T02:22:50;15.30;69.90
63047;DHT22;62025;39.238;9.126;2022-11-23T02:28:16;15.20;70.30
63047;DHT22;62025;39.238;9.126;2022-11-23T02:30:50;15.30;70.20
63047;DHT22;62025;39.238;9.126;2022-11-23T02:33:20;15.30;70.20
63047;DHT22;62025;39.238;9.126;2022-11-23T02:35:58;15.20;70.30
63047;DHT22;62025;39.238;9.126;2022-11-23T02:38:30;15.30;70.20
63047;DHT22;62025;39.238;9.126;2022-11-23T02:40:59;15.30;70.30
63047;DHT22;62025;39.238;9.126;2022-11-23T02:43:25;15.30;70.10
63047;DHT22;62025;39.238;9.126;2022-11-23T02:45:56;15.30;70.30
63047;DHT22;62025;39.238;9.126;2022-11-23T02:48:24;15.30;70.10
63047;DHT22;62025;39.238;9.126;2022-11-23T02:50:51;15.30;70.00
63047;DHT22;62025;39.238;9.126;2022-11-23T02:53:17;15.30;70.20
63047;DHT22;62025;39.238;9.126;2022-11-23T02:55:44;15.30;70.20
63047;DHT22;62025;39.238;9.126;2022-11-23T02:58:10;15.20;70.10
63047;DHT22;62025;39.238;9.126;2022-11-23T03:00:36;15.20;70.10
63047;DHT22;62025;39.238;9.126;2022-11-23T03:03:28;15.20;70.00
63047;DHT22;62025;39.238;9.126;2022-11-23T03:05:54;15.20;70.10
63047;DHT22;62025;39.238;9.126;2022-11-23T03:08:20;15.20;70.10
63047;DHT22;62025;39.238;9.126;2022-11-23T03:10:46;15.20;70.20
63047;DHT22;62025;39.238;9.126;2022-11-23T03:13:12;15.20;70.20
63047;DHT22;62025;39.238;9.126;2022-11-23T03:15:39;15.20;70.10
63047;DHT22;62025;39.238;9.126;2022-11-23T03:18:05;15.20;70.00
63047;DHT22;62025;39.238;9.126;2022-11-23T03:20:33;15.30;69.80
63047;DHT22;62025;39.238;9.126;2022-11-23T03:22:59;15.30;69.70
63047;DHT22;62025;39.238;9.126;2022-11-23T03:25:25;15.30;69.60
63047;DHT22;62025;39.238;9.126;2022-11-23T03:27:54;15.30;69.30
63047;DHT22;62025;39.238;9.126;2022-11-23T03:30:20;15.30;69.60
63047;DHT22;62025;39.238;9.126;2022-11-23T03:32:47;15.30;68.90
63047;DHT22;62025;39.238;9.126;2022-11-23T03:35:13;15.30;69.00
63047;DHT22;62025;39.238;9.126;2022-11-23T03:38:15;15.30;68.90
63047;DHT22;62025;39.238;9.126;2022-11-23T03:40:45;15.30;69.10
63047;DHT22;62025;39.238;9.126;2022-11-23T03:43:40;15.30;69.50
63047;DHT22;62025;39.238;9.126;2022-11-23T03:46:06;15.30;69.20
63047;DHT22;62025;39.238;9.126;2022-11-23T03:48:32;15.30;69.10
63047;DHT22;62025;39.238;9.126;2022-11-23T03:50:58;15.30;68.90
63047;DHT22;62025;39.238;9.126;2022-11-23T03:53:24;15.30;68.80
63047;DHT22;62025;39.238;9.126;2022-11-23T03:55:50;15.30;69.50
63047;DHT22;62025;39.238;9.126;2022-11-23T03:58:19;15.30;68.50
63047;DHT22;62025;39.238;9.126;2022-11-23T04:00:46;15.30;68.60
63047;DHT22;62025;39.238;9.126;2022-11-23T04:03:14;15.30;68.70
63047;DHT22;62025;39.238;9.126;2022-11-23T04:05:58;15.30;68.60
63047;DHT22;62025;39.238;9.126;2022-11-23T04:08:43;15.30;68.70
63047;DHT22;62025;39.238;9.126;2022-11-23T04:11:16;15.40;68.50
63047;DHT22;62025;39.238;9.126;2022-11-23T04:13:47;15.40;68.50
63047;DHT22;62025;39.238;9.126;2022-11-23T04:16:13;15.30;68.50
63047;DHT22;62025;39.238;9.126;2022-11-23T04:18:40;15.40;68.20
63047;DHT22;62025;39.238;9.126;2022-11-23T04:21:07;15.40;68.00
63047;DHT22;62025;39.238;9.126;2022-11-23T04:23:33;15.40;68.00
63047;DHT22;62025;39.238;9.126;2022-11-23T04:26:00;15.40;68.00
63047;DHT22;62025;39.238;9.126;2022-11-23T04:28:28;15.50;67.60
63047;DHT22;62025;39.238;9.126;2022-11-23T04:30:54;15.40;67.80
63047;DHT22;62025;39.238;9.126;2022-11-23T04:33:23;15.20;68.90
63047;DHT22;62025;39.238;9.126;2022-11-23T04:35:50;15.10;69.50
63047;DHT22;62025;39.238;9.126;2022-11-23T04:38:17;15.00;69.60
63047;DHT22;62025;39.238;9.126;2022-11-23T04:40:46;15.10;69.30
63047;DHT22;62025;39.238;9.126;2022-11-23T04:43:14;15.10;69.40
63047;DHT22;62025;39.238;9.126;2022-11-23T04:45:42;15.10;69.50
63047;DHT22;62025;39.238;9.126;2022-11-23T04:48:16;15.10;69.80
63047;DHT22;62025;39.238;9.126;2022-11-23T04:50:42;15.10;69.80
63047;DHT22;62025;39.238;9.126;2022-11-23T04:53:10;15.10;69.70
63047;DHT22;62025;39.238;9.126;2022-11-23T04:55:45;15.20;69.70
63047;DHT22;62025;39.238;9.126;2022-11-23T04:58:12;15.30;69.30
63047;DHT22;62025;39.238;9.126;2022-11-23T05:00:38;15.30;69.60
63047;DHT22;62025;39.238;9.126;2022-11-23T05:03:05;15.40;69.30
63047;DHT22;62025;39.238;9.126;2022-11-23T05:05:36;15.40;69.90
63047;DHT22;62025;39.238;9.126;2022-11-23T05:08:04;15.30;71.40
63047;DHT22;62025;39.238;9.126;2022-11-23T05:10:43;15.40;71.90
63047;DHT22;62025;39.238;9.126;2022-11-23T05:13:09;15.50;71.20
63047;DHT22;62025;39.238;9.126;2022-11-23T05:15:35;15.40;72.30
63047;DHT22;62025;39.238;9.126;2022-11-23T05:18:03;15.40;72.90
63047;DHT22;62025;39.238;9.126;2022-11-23T05:20:32;15.40;73.30
63047;DHT22;62025;39.238;9.126;2022-11-23T05:22:59;15.40;73.80
63047;DHT22;62025;39.238;9.126;2022-11-23T05:25:25;15.40;74.70
63047;DHT22;62025;39.238;9.126;2022-11-23T05:27:59;15.40;74.90
63047;DHT22;62025;39.238;9.126;2022-11-23T05:30:27;15.40;75.70
63047;DHT22;62025;39.238;9.126;2022-11-23T05:32:53;15.40;76.20
63047;DHT22;62025;39.238;9.126;2022-11-23T05:35:20;15.40;76.70
63047;DHT22;62025;39.238;9.126;2022-11-23T05:37:46;15.40;76.80
63047;DHT22;62025;39.238;9.126;2022-11-23T05:40:12;15.40;76.80
63047;DHT22;62025;39.238;9.126;2022-11-23T05:42:39;15.40;76.80
63047;DHT22;62025;39.238;9.126;2022-11-23T05:45:12;15.40;77.10
63047;DHT22;62025;39.238;9.126;2022-11-23T05:47:42;15.40;77.30
63047;DHT22;62025;39.238;9.126;2022-11-23T05:50:21;15.40;77.00
63047;DHT22;62025;39.238;9.126;2022-11-23T05:52:58;15.40;77.00
63047;DHT22;62025;39.238;9.126;2022-11-23T05:55:25;15.40;77.20
63047;DHT22;62025;39.238;9.126;2022-11-23T05:57:52;15.40;77.50
63047;DHT22;62025;39.238;9.126;2022-11-23T06:00:19;15.30;77.70
63047;DHT22;62025;39.238;9.126;2022-11-23T06:02:59;15.30;77.70
63047;DHT22;62025;39.238;9.126;2022-11-23T06:05:27;15.30;77.30
63047;DHT22;62025;39.238;9.126;2022-11-23T06:07:53;15.40;77.30
63047;DHT22;62025;39.238;9.126;2022-11-23T06:10:24;15.40;77.40
63047;DHT22;62025;39.238;9.126;2022-11-23T06:12:52;15.30;77.70
63047;DHT22;62025;39.238;9.126;2022-11-23T06:15:19;15.30;77.80
63047;DHT22;62025;39.238;9.126;2022-11-23T06:17:46;15.40;77.50
63047;DHT22;62025;39.238;9.126;2022-11-23T06:20:17;15.40;77.40
63047;DHT22;62025;39.238;9.126;2022-11-23T06:22:55;15.40;77.20
63047;DHT22;62025;39.238;9.126;2022-11-23T06:25:23;15.50;76.90
63047;DHT22;62025;39.238;9.126;2022-11-23T06:27:58;15.40;76.70
63047;DHT22;62025;39.238;9.126;2022-11-23T06:30:31;15.40;76.50
63047;DHT22;62025;39.238;9.126;2022-11-23T06:33:03;15.40;76.50
63047;DHT22;62025;39.238;9.126;2022-11-23T06:35:33;15.30;76.60
63047;DHT22;62025;39.238;9.126;2022-11-23T06:37:59;15.40;76.20
63047;DHT22;62025;39.238;9.126;2022-11-23T06:40:27;15.30;76.60
63047;DHT22;62025;39.238;9.126;2022-11-23T06:43:00;15.30;76.60
63047;DHT22;62025;39.238;9.126;2022-11-23T06:45:37;15.30;76.70
63047;DHT22;62025;39.238;9.126;2022-11-23T06:48:08;15.30;76.60
63047;DHT22;62025;39.238;9.126;2022-11-23T06:50:40;15.30;76.60
63047;DHT22;62025;39.238;9.126;2022-11-23T06:53:06;15.20;76.50
63047;DHT22;62025;39.238;9.126;2022-11-23T06:55:39;15.30;76.30
63047;DHT22;62025;39.238;9.126;2022-11-23T06:58:07;15.20;76.30
63047;DHT22;62025;39.238;9.126;2022-11-23T07:00:33;15.20;76.60
63047;DHT22;62025;39.238;9.126;2022-11-23T07:03:01;15.10;76.70
63047;DHT22;62025;39.238;9.126;2022-11-23T07:05:33;15.20;76.60
63047;DHT22;62025;39.238;9.126;2022-11-23T07:07:59;15.20;77.00
63047;DHT22;62025;39.238;9.126;2022-11-23T07:10:27;15.20;77.50
63047;DHT22;62025;39.238;9.126;2022-11-23T07:13:05;15.20;77.70
63047;DHT22;62025;39.238;9.126;2022-11-23T07:15:34;15.10;78.30
63047;DHT22;62025;39.238;9.126;2022-11-23T07:18:01;15.10;78.60
63047;DHT22;62025;39.238;9.126;2022-11-23T07:20:27;15.10;79.10
63047;DHT22;62025;39.238;9.126;2022-11-23T07:23:05;15.10;79.50
63047;DHT22;62025;39.238;9.126;2022-11-23T07:25:33;15.10;79.80
63047;DHT22;62025;39.238;9.126;2022-11-23T07:28:02;14.90;80.00
63047;DHT22;62025;39.238;9.126;2022-11-23T07:30:30;14.70;78.60
63047;DHT22;62025;39.238;9.126;2022-11-23T07:33:09;14.40;80.30
63047;DHT22;62025;39.238;9.126;2022-11-23T07:35:38;14.30;81.30
63047;DHT22;62025;39.238;9.126;2022-11-23T07:38:05;14.30;81.60
63047;DHT22;62025;39.238;9.126;2022-11-23T07:40:36;14.30;81.80
63047;DHT22;62025;39.238;9.126;2022-11-23T07:43:03;14.50;83.20
63047;DHT22;62025;39.238;9.126;2022-11-23T07:45:30;15.10;80.50
63047;DHT22;62025;39.238;9.126;2022-11-23T07:48:04;15.70;78.40
63047;DHT22;62025;39.238;9.126;2022-11-23T07:50:31;16.00;78.30
63047;DHT22;62025;39.238;9.126;2022-11-23T07:52:58;15.80;79.10
63047;DHT22;62025;39.238;9.126;2022-11-23T07:55:25;15.70;79.30
63047;DHT22;62025;39.238;9.126;2022-11-23T07:57:53;15.60;79.80
63047;DHT22;62025;39.238;9.126;2022-11-23T08:00:23;15.50;80.00
63047;DHT22;62025;39.238;9.126;2022-11-23T08:02:50;16.30;77.70
63047;DHT22;62025;39.238;9.126;2022-11-23T08:05:16;17.20;75.30
63047;DHT22;62025;39.238;9.126;2022-11-23T08:07:42;17.40;74.20
63047;DHT22;62025;39.238;9.126;2022-11-23T08:10:11;17.20;74.60
63047;DHT22;62025;39.238;9.126;2022-11-23T08:12:38;16.90;75.10
63047;DHT22;62025;39.238;9.126;2022-11-23T08:15:04;16.70;75.90
63047;DHT22;62025;39.238;9.126;2022-11-23T08:17:31;16.40;77.60
63047;DHT22;62025;39.238;9.126;2022-11-23T08:19:57;16.10;78.70
63047;DHT22;62025;39.238;9.126;2022-11-23T08:22:23;16.00;79.60
63047;DHT22;62025;39.238;9.126;2022-11-23T08:24:51;15.90;80.40
63047;DHT22;62025;39.238;9.126;2022-11-23T08:27:17;15.90;80.70
63047;DHT22;62025;39.238;9.126;2022-11-23T08:29:43;15.90;81.50
63047;DHT22;62025;39.238;9.126;2022-11-23T08:32:10;15.90;81.50
63047;DHT22;62025;39.238;9.126;2022-11-23T08:34:36;15.90;82.20
63047;DHT22;62025;39.238;9.126;2022-11-23T08:37:03;15.90;82.30
63047;DHT22;62025;39.238;9.126;2022-11-23T08:39:29;15.80;82.50
63047;DHT22;62025;39.238;9.126;2022-11-23T08:41:55;15.90;82.80
63047;DHT22;62025;39.238;9.126;2022-11-23T08:44:20;15.90;82.70
63047;DHT22;62025;39.238;9.126;2022-11-23T08:46:46;15.80;83.00
63047;DHT22;62025;39.238;9.126;2022-11-23T08:49:12;15.80;83.20
63047;DHT22;62025;39.238;9.126;2022-11-23T08:51:38;15.80;83.30
63047;DHT22;62025;39.238;9.126;2022-11-23T08:54:04;15.90;83.70
63047;DHT22;62025;39.238;9.126;2022-11-23T08:56:30;16.60;82.60
63047;DHT22;62025;39.238;9.126;2022-11-23T08:58:56;17.20;80.20
63047;DHT22;62025;39.238;9.126;2022-11-23T09:01:22;17.10;79.80
63047;DHT22;62025;39.238;9.126;2022-11-23T09:03:48;17.90;77.80
63047;DHT22;62025;39.238;9.126;2022-11-23T09:06:14;18.40;75.40
63047;DHT22;62025;39.238;9.126;2022-11-23T09:08:41;18.60;74.90
63047;DHT22;62025;39.238;9.126;2022-11-23T09:11:09;19.10;73.60
63047;DHT22;62025;39.238;9.126;2022-11-23T09:13:38;19.40;72.80
63047;DHT22;62025;39.238;9.126;2022-11-23T09:16:05;19.60;71.80
63047;DHT22;62025;39.238;9.126;2022-11-23T09:18:34;19.80;71.90
63047;DHT22;62025;39.238;9.126;2022-11-23T09:21:04;19.90;71.00
63047;DHT22;62025;39.238;9.126;2022-11-23T09:23:31;19.40;71.80
63047;DHT22;62025;39.238;9.126;2022-11-23T09:25:58;18.80;73.60
63047;DHT22;62025;39.238;9.126;2022-11-23T09:28:25;18.50;74.60
63047;DHT22;62025;39.238;9.126;2022-11-23T09:30:53;18.20;75.30
63047;DHT22;62025;39.238;9.126;2022-11-23T09:33:22;18.00;75.80
63047;DHT22;62025;39.238;9.126;2022-11-23T09:36:02;17.80;76.50
63047;DHT22;62025;39.238;9.126;2022-11-23T09:38:29;17.70;76.90
63047;DHT22;62025;39.238;9.126;2022-11-23T09:52:31;17.50;77.50
63047;DHT22;62025;39.238;9.126;2022-11-23T09:55:15;17.50;77.70
63047;DHT22;62025;39.238;9.126;2022-11-23T09:57:46;17.40;77.80
63047;DHT22;62025;39.238;9.126;2022-11-23T10:00:20;17.40;77.80
63047;DHT22;62025;39.238;9.126;2022-11-23T10:02:48;17.40;77.90
63047;DHT22;62025;39.238;9.126;2022-11-23T10:05:22;17.40;78.00
63047;DHT22;62025;39.238;9.126;2022-11-23T10:22:59;17.90;77.50
63047;DHT22;62025;39.238;9.126;2022-11-23T10:25:37;17.70;78.50
63047;DHT22;62025;39.238;9.126;2022-11-23T10:28:15;17.60;77.90
63047;DHT22;62025;39.238;9.126;2022-11-23T10:30:52;17.60;76.90
63047;DHT22;62025;39.238;9.126;2022-11-23T10:33:36;17.60;76.10
63047;DHT22;62025;39.238;9.126;2022-11-23T10:36:10;17.70;76.40
63047;DHT22;62025;39.238;9.126;2022-11-23T10:38:38;17.70;76.60
63047;DHT22;62025;39.238;9.126;2022-11-23T10:41:09;17.80;76.50
63047;DHT22;62025;39.238;9.126;2022-11-23T10:43:46;17.80;76.70
63047;DHT22;62025;39.238;9.126;2022-11-23T10:48:52;17.80;77.20
63047;DHT22;62025;39.238;9.126;2022-11-23T10:51:31;17.90;76.70
63047;DHT22;62025;39.238;9.126;2022-11-23T10:54:04;18.10;76.20
63047;DHT22;62025;39.238;9.126;2022-11-23T10:56:33;18.20;75.50
63047;DHT22;62025;39.238;9.126;2022-11-23T10:58:59;18.30;75.30
63047;DHT22;62025;39.238;9.126;2022-11-23T11:01:27;18.40;75.30
63047;DHT22;62025;39.238;9.126;2022-11-23T11:03:55;18.40;76.10
63047;DHT22;62025;39.238;9.126;2022-11-23T11:06:26;18.50;75.40
63047;DHT22;62025;39.238;9.126;2022-11-23T11:08:56;18.40;75.50
63047;DHT22;62025;39.238;9.126;2022-11-23T11:11:26;18.50;75.30
63047;DHT22;62025;39.238;9.126;2022-11-23T11:16:54;18.40;74.90
63047;DHT22;62025;39.238;9.126;2022-11-23T11:19:31;18.40;74.30
63047;DHT22;62025;39.238;9.126;2022-11-23T11:22:03;18.40;74.00
63047;DHT22;62025;39.238;9.126;2022-11-23T11:24:48;18.40;74.20
63047;DHT22;62025;39.238;9.126;2022-11-23T11:27:21;18.50;74.50
63047;DHT22;62025;39.238;9.126;2022-11-23T11:29:54;18.60;74.30
63047;DHT22;62025;39.238;9.126;2022-11-23T11:35:32;18.70;74.20
63047;DHT22;62025;39.238;9.126;2022-11-23T11:38:25;18.60;74.10
63047;DHT22;62025;39.238;9.126;2022-11-23T11:40:52;18.70;74.40
63047;DHT22;62025;39.238;9.126;2022-11-23T11:43:37;18.60;74.20
63047;DHT22;62025;39.238;9.126;2022-11-23T11:46:26;18.40;74.40
63047;DHT22;62025;39.238;9.126;2022-11-23T11:49:22;18.40;74.30
63047;DHT22;62025;39.238;9.126;2022-11-23T11:51:53;18.50;74.80
63047;DHT22;62025;39.238;9.126;2022-11-23T11:55:06;18.40;74.40
63047;DHT22;62025;39.238;9.126;2022-11-23T11:58:14;18.50;74.10
63047;DHT22;62025;39.238;9.126;2022-11-23T12:00:42;18.50;73.90
63047;DHT22;62025;39.238;9.126;2022-11-23T12:03:41;18.40;73.90
63047;DHT22;62025;39.238;9.126;2022-11-23T12:06:17;18.40;73.60
63047;DHT22;62025;39.238;9.126;2022-11-23T12:09:38;18.40;73.40
63047;DHT22;62025;39.238;9.126;2022-11-23T12:12:15;18.30;73.80
63047;DHT22;62025;39.238;9.126;2022-11-23T12:14:43;18.40;74.30
63047;DHT22;62025;39.238;9.126;2022-11-23T12:43:20;18.10;78.80
63047;DHT22;62025;39.238;9.126;2022-11-23T12:49:07;18.00;79.40
63047;DHT22;62025;39.238;9.126;2022-11-23T12:52:32;18.00;79.60
63047;DHT22;62025;39.238;9.126;2022-11-23T12:55:27;18.10;79.80
63047;DHT22;62025;39.238;9.126;2022-11-23T13:01:08;18.00;80.20
63047;DHT22;62025;39.238;9.126;2022-11-23T13:13:38;17.90;81.00
63047;DHT22;62025;39.238;9.126;2022-11-23T13:22:50;17.90;81.10
63047;DHT22;62025;39.238;9.126;2022-11-23T13:25:26;17.90;81.40
63047;DHT22;62025;39.238;9.126;2022-11-23T13:28:04;17.90;81.00
63047;DHT22;62025;39.238;9.126;2022-11-23T13:33:57;17.80;81.30
63047;DHT22;62025;39.238;9.126;2022-11-23T13:38:55;17.90;81.60
63047;DHT22;62025;39.238;9.126;2022-11-23T13:50:57;17.80;82.10
63047;DHT22;62025;39.238;9.126;2022-11-23T13:53:36;17.80;82.20
63047;DHT22;62025;39.238;9.126;2022-11-23T14:04:38;17.70;83.40
63047;DHT22;62025;39.238;9.126;2022-11-23T14:07:14;17.70;83.80
63047;DHT22;62025;39.238;9.126;2022-11-23T14:12:43;17.70;84.00
63047;DHT22;62025;39.238;9.126;2022-11-23T14:15:21;17.70;84.00
63047;DHT22;62025;39.238;9.126;2022-11-23T14:26:18;17.60;84.30
63047;DHT22;62025;39.238;9.126;2022-11-23T14:34:57;17.60;84.40
63047;DHT22;62025;39.238;9.126;2022-11-23T14:43:47;17.50;85.30
63047;DHT22;62025;39.238;9.126;2022-11-23T14:46:16;17.50;85.00
63047;DHT22;62025;39.238;9.126;2022-11-23T14:48:46;17.60;85.00
63047;DHT22;62025;39.238;9.126;2022-11-23T14:51:22;17.60;84.90
63047;DHT22;62025;39.238;9.126;2022-11-23T14:53:55;17.60;84.80
63047;DHT22;62025;39.238;9.126;2022-11-23T14:56:31;17.60;85.10
63047;DHT22;62025;39.238;9.126;2022-11-23T14:59:03;17.60;85.10
63047;DHT22;62025;39.238;9.126;2022-11-23T15:01:32;17.60;85.30
63047;DHT22;62025;39.238;9.126;2022-11-23T15:04:09;17.60;85.50
63047;DHT22;62025;39.238;9.126;2022-11-23T15:06:45;17.50;85.60
63047;DHT22;62025;39.238;9.126;2022-11-23T15:11:44;17.60;85.50
63047;DHT22;62025;39.238;9.126;2022-11-23T15:14:19;17.50;85.50
63047;DHT22;62025;39.238;9.126;2022-11-23T15:16:51;17.60;85.70
63047;DHT22;62025;39.238;9.126;2022-11-23T15:19:28;17.50;86.00
63047;DHT22;62025;39.238;9.126;2022-11-23T15:21:55;17.50;85.90
63047;DHT22;62025;39.238;9.126;2022-11-23T15:24:23;17.50;85.70
63047;DHT22;62025;39.238;9.126;2022-11-23T15:26:51;17.50;85.70
63047;DHT22;62025;39.238;9.126;2022-11-23T15:29:32;17.50;85.80
63047;DHT22;62025;39.238;9.126;2022-11-23T15:32:03;17.50;86.10
63047;DHT22;62025;39.238;9.126;2022-11-23T15:34:46;17.50;86.00
63047;DHT22;62025;39.238;9.126;2022-11-23T15:37:13;17.40;86.30
63047;DHT22;62025;39.238;9.126;2022-11-23T15:39:40;17.40;86.20
63047;DHT22;62025;39.238;9.126;2022-11-23T15:42:12;17.40;86.00
63047;DHT22;62025;39.238;9.126;2022-11-23T15:44:40;17.40;85.80
63047;DHT22;62025;39.238;9.126;2022-11-23T15:47:07;17.40;85.90
63047;DHT22;62025;39.238;9.126;2022-11-23T15:49:40;17.40;86.00
63047;DHT22;62025;39.238;9.126;2022-11-23T15:52:14;17.40;85.90
63047;DHT22;62025;39.238;9.126;2022-11-23T15:54:43;17.40;85.90
63047;DHT22;62025;39.238;9.126;2022-11-23T15:57:20;17.40;86.00
63047;DHT22;62025;39.238;9.126;2022-11-23T16:00:00;17.40;86.00
63047;DHT22;62025;39.238;9.126;2022-11-23T16:02:37;17.30;86.20
63047;DHT22;62025;39.238;9.126;2022-11-23T16:05:17;17.30;86.20
63047;DHT22;62025;39.238;9.126;2022-11-23T16:07:51;17.40;86.00
63047;DHT22;62025;39.238;9.126;2022-11-23T16:10:19;17.40;85.90
63047;DHT22;62025;39.238;9.126;2022-11-23T16:13:34;17.30;86.10
63047;DHT22;62025;39.238;9.126;2022-11-23T16:16:05;17.30;86.40
63047;DHT22;62025;39.238;9.126;2022-11-23T16:18:34;17.30;86.60
63047;DHT22;62025;39.238;9.126;2022-11-23T16:21:02;17.30;86.60
63047;DHT22;62025;39.238;9.126;2022-11-23T16:23:43;17.30;86.50
63047;DHT22;62025;39.238;9.126;2022-11-23T16:26:11;17.30;86.40
63047;DHT22;62025;39.238;9.126;2022-11-23T16:28:47;17.30;86.40
63047;DHT22;62025;39.238;9.126;2022-11-23T16:31:38;17.30;86.60
63047;DHT22;62025;39.238;9.126;2022-11-23T16:34:16;17.30;86.50
63047;DHT22;62025;39.238;9.126;2022-11-23T16:36:43;17.30;86.40
63047;DHT22;62025;39.238;9.126;2022-11-23T16:39:09;17.30;86.60
63047;DHT22;62025;39.238;9.126;2022-11-23T16:41:36;17.30;86.70
63047;DHT22;62025;39.238;9.126;2022-11-23T16:44:02;17.30;86.70
63047;DHT22;62025;39.238;9.126;2022-11-23T16:46:28;17.30;86.70
63047;DHT22;62025;39.238;9.126;2022-11-23T16:48:56;17.30;86.80
63047;DHT22;62025;39.238;9.126;2022-11-23T16:51:24;17.30;86.70
63047;DHT22;62025;39.238;9.126;2022-11-23T16:53:51;17.30;86.60
63047;DHT22;62025;39.238;9.126;2022-11-23T16:56:25;17.30;86.50
63047;DHT22;62025;39.238;9.126;2022-11-23T16:58:53;17.30;86.80
63047;DHT22;62025;39.238;9.126;2022-11-23T17:01:25;17.30;86.80
63047;DHT22;62025;39.238;9.126;2022-11-23T17:03:52;17.30;86.70
63047;DHT22;62025;39.238;9.126;2022-11-23T17:06:19;17.20;86.50
63047;DHT22;62025;39.238;9.126;2022-11-23T17:08:49;17.30;86.30
63047;DHT22;62025;39.238;9.126;2022-11-23T17:11:18;17.30;86.50
63047;DHT22;62025;39.238;9.126;2022-11-23T17:13:47;17.30;86.20
63047;DHT22;62025;39.238;9.126;2022-11-23T17:16:18;17.30;86.40
63047;DHT22;62025;39.238;9.126;2022-11-23T17:18:46;17.30;86.40
63047;DHT22;62025;39.238;9.126;2022-11-23T17:21:12;17.30;86.30
63047;DHT22;62025;39.238;9.126;2022-11-23T17:23:39;17.30;86.20
63047;DHT22;62025;39.238;9.126;2022-11-23T17:28:55;17.30;86.20
63047;DHT22;62025;39.238;9.126;2022-11-23T17:31:22;17.30;86.10
63047;DHT22;62025;39.238;9.126;2022-11-23T17:33:48;17.30;85.90
63047;DHT22;62025;39.238;9.126;2022-11-23T17:36:14;17.30;85.60
63047;DHT22;62025;39.238;9.126;2022-11-23T17:38:40;17.30;85.80
63047;DHT22;62025;39.238;9.126;2022-11-23T17:41:09;17.30;85.80
63047;DHT22;62025;39.238;9.126;2022-11-23T17:43:35;17.30;85.90
63047;DHT22;62025;39.238;9.126;2022-11-23T17:46:01;17.30;86.10
63047;DHT22;62025;39.238;9.126;2022-11-23T17:48:27;17.30;86.00
63047;DHT22;62025;39.238;9.126;2022-11-23T17:50:53;17.30;85.90
63047;DHT22;62025;39.238;9.126;2022-11-23T17:53:19;17.30;85.80
63047;DHT22;62025;39.238;9.126;2022-11-23T17:55:45;17.30;85.90
63047;DHT22;62025;39.238;9.126;2022-11-23T17:58:11;17.30;85.80
63047;DHT22;62025;39.238;9.126;2022-11-23T18:00:37;17.30;85.80
63047;DHT22;62025;39.238;9.126;2022-11-23T18:03:03;17.30;86.10
63047;DHT22;62025;39.238;9.126;2022-11-23T18:05:29;17.30;86.00
63047;DHT22;62025;39.238;9.126;2022-11-23T18:07:56;17.30;86.00
63047;DHT22;62025;39.238;9.126;2022-11-23T18:10:22;17.20;86.30
63047;DHT22;62025;39.238;9.126;2022-11-23T18:12:48;17.20;86.40
63047;DHT22;62025;39.238;9.126;2022-11-23T18:15:14;17.20;86.40